sensor_id;sensor_type;location;lat;lon;timestamp;temperature;humidity
63960;DHT22;50136;51.374;0.096;2023-01-09T00:09:30;7.00;99.90
63960;DHT22;50136;51.374;0.096;2023-01-09T00:19:33;7.10;99.90
63960;DHT22;50136;51.374;0.096;2023-01-09T00:29:35;7.10;99.90
63960;DHT22;50136;51.374;0.096;2023-01-09T00:39:39;7.10;99.90
63960;DHT22;50136;51.374;0.096;2023-01-09T00:49:42;7.10;99.90
63960;DHT22;50136;51.374;0.096;2023-01-09T00:59:46;7.10;99.90
63960;DHT22;50136;51.374;0.096;2023-01-09T01:09:48;7.10;99.90
63960;DHT22;50136;51.374;0.096;2023-01-09T01:19:51;7.10;99.90
63960;DHT22;50136;51.374;0.096;2023-01-09T01:29:53;7.00;99.90
63960;DHT22;50136;51.374;0.096;2023-01-09T01:39:57;7.00;99.90
63960;DHT22;50136;51.374;0.096;2023-01-09T01:50:00;7.00;99.90
63960;DHT22;50136;51.374;0.096;2023-01-09T02:00:06;6.90;99.90
63960;DHT22;50136;51.374;0.096;2023-01-09T02:10:09;6.90;99.90
63960;DHT22;50136;51.374;0.096;2023-01-09T02:20:37;6.90;99.90
63960;DHT22;50136;51.374;0.096;2023-01-09T02:30:42;6.90;99.90
63960;DHT22;50136;51.374;0.096;2023-01-09T02:40:49;6.80;99.90
63960;DHT22;50136;51.374;0.096;2023-01-09T02:51:03;6.80;99.90
63960;DHT22;50136;51.374;0.096;2023-01-09T03:01:18;6.60;99.90
63960;DHT22;50136;51.374;0.096;2023-01-09T03:11:26;6.50;99.90
63960;DHT22;50136;51.374;0.096;2023-01-09T03:21:30;6.30;99.90
63960;DHT22;50136;51.374;0.096;2023-01-09T03:31:34;6.20;99.90
63960;DHT22;50136;51.374;0.096;2023-01-09T03:41:36;6.10;99.90
63960;DHT22;50136;51.374;0.096;2023-01-09T03:51:39;6.00;99.90
63960;DHT22;50136;51.374;0.096;2023-01-09T04:01:41;6.00;99.90
63960;DHT22;50136;51.374;0.096;2023-01-09T04:11:44;5.90;99.90
63960;DHT22;50136;51.374;0.096;2023-01-09T04:21:46;5.90;99.90
63960;DHT22;50136;51.374;0.096;2023-01-09T04:31:50;5.90;99.90
63960;DHT22;50136;51.374;0.096;2023-01-09T04:41:52;5.80;99.90
63960;DHT22;50136;51.374;0.096;2023-01-09T04:51:55;5.90;99.90
63960;DHT22;50136;51.374;0.096;2023-01-09T05:01:57;6.00;99.90
63960;DHT22;50136;51.374;0.096;2023-01-09T05:12:01;6.00;99.90
63960;DHT22;50136;51.374;0.096;2023-01-09T05:22:03;5.90;99.90
63960;DHT22;50136;51.374;0.096;2023-01-09T05:32:06;6.00;99.90
63960;DHT22;50136;51.374;0.096;2023-01-09T05:42:09;6.00;99.90
63960;DHT22;50136;51.374;0.096;2023-01-09T05:52:12;6.00;99.90
63960;DHT22;50136;51.374;0.096;2023-01-09T06:02:14;5.90;99.90
63960;DHT22;50136;51.374;0.096;2023-01-09T06:12:18;5.90;99.90
63960;DHT22;50136;51.374;0.096;2023-01-09T06:22:20;6.00;99.90
63960;DHT22;50136;51.374;0.096;2023-01-09T06:32:23;6.00;99.90
63960;DHT22;50136;51.374;0.096;2023-01-09T06:42:25;6.00;99.90
63960;DHT22;50136;51.374;0.096;2023-01-09T06:52:29;6.00;99.90
63960;DHT22;50136;51.374;0.096;2023-01-09T07:02:31;6.00;99.90
63960;DHT22;50136;51.374;0.096;2023-01-09T07:12:34;6.00;99.90
63960;DHT22;50136;51.374;0.096;2023-01-09T07:22:36;6.00;99.90
63960;DHT22;50136;51.374;0.096;2023-01-09T07:32:39;6.00;99.90
63960;DHT22;50136;51.374;0.096;2023-01-09T07:42:42;6.00;99.90
63960;DHT22;50136;51.374;0.096;2023-01-09T07:52:45;6.00;99.90
63960;DHT22;50136;51.374;0.096;2023-01-09T08:02:50;6.00;99.90
63960;DHT22;50136;51.374;0.096;2023-01-09T08:12:54;6.00;99.90
63960;DHT22;50136;51.374;0.096;2023-01-09T08:22:56;5.90;99.90
63960;DHT22;50136;51.374;0.096;2023-01-09T08:32:59;6.00;99.90
63960;DHT22;50136;51.374;0.096;2023-01-09T08:43:01;6.00;99.90
63960;DHT22;50136;51.374;0.096;2023-01-09T08:53:04;6.00;99.90
63960;DHT22;50136;51.374;0.096;2023-01-09T09:03:07;6.10;99.90
63960;DHT22;50136;51.374;0.096;2023-01-09T09:13:11;6.70;99.90
63960;DHT22;50136;51.374;0.096;2023-01-09T09:23:13;7.50;99.90
63960;DHT22;50136;51.374;0.096;2023-01-09T09:33:16;8.50;99.90
63960;DHT22;50136;51.374;0.096;2023-01-09T09:43:45;7.60;99.90
63960;DHT22;50136;51.374;0.096;2023-01-09T09:53:58;7.20;99.90
63960;DHT22;50136;51.374;0.096;2023-01-09T10:04:04;8.20;99.90
63960;DHT22;50136;51.374;0.096;2023-01-09T10:14:10;7.80;99.90
63960;DHT22;50136;51.374;0.096;2023-01-09T10:24:46;7.70;99.90
63960;DHT22;50136;51.374;0.096;2023-01-09T10:35:03;7.70;99.90
63960;DHT22;50136;51.374;0.096;2023-01-09T10:45:16;7.80;99.90
63960;DHT22;50136;51.374;0.096;2023-01-09T10:55:31;7.90;99.90
63960;DHT22;50136;51.374;0.096;2023-01-09T11:05:36;8.10;99.90
63960;DHT22;50136;51.374;0.096;2023-01-09T11:15:39;8.20;99.90
63960;DHT22;50136;51.374;0.096;2023-01-09T11:25:51;8.20;99.90
63960;DHT22;50136;51.374;0.096;2023-01-09T11:36:06;8.30;99.90
63960;DHT22;50136;51.374;0.096;2023-01-09T11:46:09;8.80;99.90
63960;DHT22;50136;51.374;0.096;2023-01-09T11:56:31;9.00;99.90
63960;DHT22;50136;51.374;0.096;2023-01-09T12:06:41;8.90;99.90
63960;DHT22;50136;51.374;0.096;2023-01-09T12:17:01;8.90;99.90
63960;DHT22;50136;51.374;0.096;2023-01-09T12:27:16;8.80;99.90
63960;DHT22;50136;51.374;0.096;2023-01-09T12:37:47;8.80;99.90
63960;DHT22;50136;51.374;0.096;2023-01-09T12:47:54;8.80;99.90
63960;DHT22;50136;51.374;0.096;2023-01-09T13:09:11;9.00;99.90
63960;DHT22;50136;51.374;0.096;2023-01-09T13:19:19;9.00;99.90
63960;DHT22;50136;51.374;0.096;2023-01-09T13:29:28;8.90;99.90
63960;DHT22;50136;51.374;0.096;2023-01-09T13:39:32;8.90;99.90
63960;DHT22;50136;51.374;0.096;2023-01-09T13:50:00;8.80;99.90
63960;DHT22;50136;51.374;0.096;2023-01-09T14:10:48;8.80;99.90
63960;DHT22;50136;51.374;0.096;2023-01-09T14:20:54;9.00;99.90
63960;DHT22;50136;51.374;0.096;2023-01-09T14:31:07;9.10;99.90
63960;DHT22;50136;51.374;0.096;2023-01-09T14:41:19;9.30;99.90
63960;DHT22;50136;51.374;0.096;2023-01-09T14:51:26;8.90;99.90
63960;DHT22;50136;51.374;0.096;2023-01-09T15:01:30;8.70;99.90
63960;DHT22;50136;51.374;0.096;2023-01-09T15:11:38;8.60;99.90
63960;DHT22;50136;51.374;0.096;2023-01-09T15:21:55;8.60;99.90
63960;DHT22;50136;51.374;0.096;2023-01-09T15:32:03;8.50;99.90
63960;DHT22;50136;51.374;0.096;2023-01-09T15:42:19;8.20;99.90
63960;DHT22;50136;51.374;0.096;2023-01-09T15:52:25;7.90;99.90
63960;DHT22;50136;51.374;0.096;2023-01-09T16:02:27;7.70;99.90
63960;DHT22;50136;51.374;0.096;2023-01-09T16:12:30;7.50;99.90
63960;DHT22;50136;51.374;0.096;2023-01-09T16:22:33;7.30;99.90
63960;DHT22;50136;51.374;0.096;2023-01-09T16:32:46;7.30;99.90
63960;DHT22;50136;51.374;0.096;2023-01-09T16:42:50;7.10;99.90
63960;DHT22;50136;51.374;0.096;2023-01-09T16:52:55;7.00;99.90
63960;DHT22;50136;51.374;0.096;2023-01-09T17:02:57;7.10;99.90
63960;DHT22;50136;51.374;0.096;2023-01-09T17:13:01;7.20;99.90
63960;DHT22;50136;51.374;0.096;2023-01-09T17:23:02;7.20;99.90
63960;DHT22;50136;51.374;0.096;2023-01-09T17:33:09;7.20;99.90
63960;DHT22;50136;51.374;0.096;2023-01-09T17:43:15;7.10;99.90
63960;DHT22;50136;51.374;0.096;2023-01-09T17:53:18;7.10;99.90
63960;DHT22;50136;51.374;0.096;2023-01-09T18:03:21;7.00;99.90
63960;DHT22;50136;51.374;0.096;2023-01-09T18:13:24;6.90;99.90
63960;DHT22;50136;51.374;0.096;2023-01-09T18:23:38;6.90;99.90
63960;DHT22;50136;51.374;0.096;2023-01-09T18:33:41;6.80;99.90
63960;DHT22;50136;51.374;0.096;2023-01-09T18:43:47;6.70;99.90
63960;DHT22;50136;51.374;0.096;2023-01-09T18:53:51;6.70;99.90
63960;DHT22;50136;51.374;0.096;2023-01-09T19:03:54;6.60;99.90
63960;DHT22;50136;51.374;0.096;2023-01-09T19:13:58;6.40;99.90
63960;DHT22;50136;51.374;0.096;2023-01-09T19:24:00;6.30;99.90
63960;DHT22;50136;51.374;0.096;2023-01-09T19:34:03;6.30;99.90
63960;DHT22;50136;51.374;0.096;2023-01-09T19:44:05;6.30;99.90
63960;DHT22;50136;51.374;0.096;2023-01-09T19:54:09;6.20;99.90
63960;DHT22;50136;51.374;0.096;2023-01-09T20:04:12;6.10;99.90
63960;DHT22;50136;51.374;0.096;2023-01-09T20:14:16;6.10;99.90
63960;DHT22;50136;51.374;0.096;2023-01-09T20:24:19;6.10;99.90
63960;DHT22;50136;51.374;0.096;2023-01-09T20:34:22;6.10;99.90
63960;DHT22;50136;51.374;0.096;2023-01-09T20:44:24;6.00;99.90
63960;DHT22;50136;51.374;0.096;2023-01-09T20:54:27;6.00;99.90
63960;DHT22;50136;51.374;0.096;2023-01-09T21:04:30;6.00;99.90
63960;DHT22;50136;51.374;0.096;2023-01-09T21:14:34;5.90;99.90
63960;DHT22;50136;51.374;0.096;2023-01-09T21:24:36;5.90;99.90
63960;DHT22;50136;51.374;0.096;2023-01-09T21:34:39;6.00;99.90
63960;DHT22;50136;51.374;0.096;2023-01-09T21:44:50;6.00;99.90
63960;DHT22;50136;51.374;0.096;2023-01-09T21:54:54;6.00;99.90
63960;DHT22;50136;51.374;0.096;2023-01-09T22:04:56;5.90;99.90
63960;DHT22;50136;51.374;0.096;2023-01-09T22:14:59;5.80;99.90
63960;DHT22;50136;51.374;0.096;2023-01-09T22:25:01;5.70;99.90
63960;DHT22;50136;51.374;0.096;2023-01-09T22:35:06;5.80;99.90
63960;DHT22;50136;51.374;0.096;2023-01-09T22:45:08;5.80;99.90
63960;DHT22;50136;51.374;0.096;2023-01-09T22:55:12;5.80;99.90
63960;DHT22;50136;51.374;0.096;2023-01-09T23:05:14;5.80;99.90
63960;DHT22;50136;51.374;0.096;2023-01-09T23:15:17;5.80;99.90
63960;DHT22;50136;51.374;0.096;2023-01-09T23:25:19;5.70;99.90
63960;DHT22;50136;51.374;0.096;2023-01-09T23:35:23;5.70;99.90
63960;DHT22;50136;51.374;0.096;2023-01-09T23:45:25;5.60;99.90
63960;DHT22;50136;51.374;0.096;2023-01-09T23:55:28;5.50;99.90
